• Join FlightAware (Why Join?)
  • Login
  • US Flag 
05:18PM EDT


 

Airport Tracker/Info


-or-


 

Live Flight TrackerFlight Track Log ✈ SKW4564 ✈ 05-Sep-2013 ✈ KSEA - KLAX

Flight Track Log - Related Links

Times and Time Zones

All times are in EDT time to prevent confusion due to time zone crossing. See the SKW4564 flight status page for this flight to view local times or setup timezone preferences in your user account.

Time Position Orientation Groundspeed Altitude Reporting Facility
EDT Latitude Longitude Course Direction KTS MPH feet Rate Location/Type
05:40PM 47.4306 -122.3097 161° South 162 186 1,200  Level Seattle Center
05:41PM 47.3800 -122.3175 186° South 202 232 2,900 2,280 Climbing Seattle Center
05:42PM 47.3025 -122.3133 178° South 277 319 5,600 3,120 Climbing Seattle Center
05:43PM 47.0484 -122.1684 163° South  Level Estimated
05:43PM 47.2272 -122.3061 176° South 276 318 9,300  Level Seattle Center
05:44PM 46.9464 -122.1443 171° South  Level FlightAware Approximate
05:44PM 47.1536 -122.2331 146° Southeast 302 348 11,300  Level Seattle Center
05:45PM 46.8460 -122.1088 161° South  Level Estimated
05:45PM 47.0594 -122.2164 173° South 356 410 13,500  Level Seattle Center
05:46PM 46.9661 -122.2783 204° Southwest 368 423 16,100 2,220 Climbing Seattle Center
05:47PM 46.8828 -122.3608 214° Southwest 391 450 18,000 2,280 Climbing Seattle Center
05:48PM 46.7828 -122.4108 199° South 386 444 20,800 1,980 Climbing Seattle Center
05:49PM 46.6792 -122.4000 176° South 397 457 22,100 1,200 Climbing Seattle Center
05:50PM 46.5725 -122.3686 169° South 400 460 23,300 1,560 Climbing Seattle Center
05:51PM 46.4394 -122.3211 166° South 413 475 25,300 1,740 Climbing Seattle Center
05:52PM 46.3286 -122.2886 169° South 411 473 26,900 1,500 Climbing Seattle Center
05:53PM 46.2178 -122.2514 167° South 413 475 28,400 1,260 Climbing Seattle Center
05:54PM 46.1022 -122.2144 168° South 419 482 29,500 1,020 Climbing Seattle Center
05:55PM 45.9869 -122.1797 168° South 422 486 30,500 1,080 Climbing Seattle Center
05:56PM 45.8703 -122.1417 167° South 428 493 31,800 780 Climbing Seattle Center
05:57PM 45.7519 -122.1044 168° South 434 499 32,200 540 Climbing Seattle Center
05:58PM 45.6297 -122.0653 167° South 447 514 33,000 900 Climbing Seattle Center
05:59PM 45.5089 -122.0278 168° South 446 513 34,100 1,020 Climbing Seattle Center
06:00PM 45.3906 -121.9911 168° South 439 505 35,100 960 Climbing Seattle Center
06:01PM 45.2731 -121.9564 168° South 433 498 36,100 900 Climbing Seattle Center
06:02PM 45.1525 -121.9189 168° South 431 496 37,000 420 Climbing Seattle Center
06:03PM 45.0367 -121.8842 168° South 428 493 37,000 120 Level Seattle Center
06:04PM 44.9158 -121.8464 168° South 442 509 37,300 600 Climbing Seattle Center
06:05PM 44.7958 -121.8100 168° South 443 510 38,300 780 Climbing Seattle Center
06:06PM 44.6561 -121.7686 168° South 432 497 39,000 300 Climbing Seattle Center
06:07PM 44.5397 -121.7353 168° South 430 495 39,000  Level Seattle Center
06:08PM 44.4217 -121.7006 168° South 433 498 39,000  Level Seattle Center
06:09PM 44.3039 -121.6653 168° South 435 501 39,000  Level Seattle Center
06:10PM 44.1836 -121.6294 168° South 440 506 39,000  Level Seattle Center
06:11PM 44.0628 -121.5922 168° South 445 512 39,000  Level Seattle Center
06:12PM 43.9433 -121.5581 168° South 441 507 39,000  Level Seattle Center
06:13PM 43.8131 -121.5192 168° South 444 511 39,000  Level Seattle Center
06:14PM 43.6917 -121.4850 168° South 445 512 39,000  Level Seattle Center
06:15PM 43.5711 -121.4500 168° South 442 509 39,000  Level Seattle Center
06:16PM 43.4508 -121.4147 168° South 442 509 39,000  Level Seattle Center
06:17PM 43.3311 -121.3794 168° South 442 509 39,000  Level Seattle Center
06:18PM 43.2117 -121.3475 169° South 439 505 39,000  Level Seattle Center
06:19PM 43.0917 -121.3128 168° South 441 507 39,000  Level Seattle Center
06:20PM 42.9703 -121.2792 169° South 443 510 39,000  Level Seattle Center
06:21PM 42.8486 -121.2447 168° South 444 511 39,000  Level Seattle Center
06:22PM 42.7283 -121.2111 168° South 442 509 39,000  Level Seattle Center
06:23PM 42.6083 -121.1775 168° South 440 506 39,000  Level Seattle Center
06:24PM 42.4642 -121.1361 168° South 436 502 39,000  Level Seattle Center
06:25PM 42.3458 -121.1064 169° South 433 498 39,000  Level Seattle Center
06:26PM 42.2283 -121.0742 169° South 429 494 39,000  Level Seattle Center
06:27PM 42.1106 -121.0414 168° South 431 496 39,000  Level Seattle Center
06:28PM 41.9931 -121.0097 169° South 429 494 39,000  Level Seattle Center
06:29PM 41.8739 -120.9772 169° South 434 499 39,000  Level Seattle Center
06:30PM 41.7589 -120.9458 168° South 424 488 39,000  Level Seattle Center
06:31PM 41.6431 -120.9142 168° South 423 487 39,000  Level Seattle Center
06:32PM 41.5272 -120.8831 169° South 424 488 39,000  Level Seattle Center
06:33PM 41.4111 -120.8517 169° South 426 490 39,000  Level Seattle Center
06:34PM 41.2942 -120.8186 168° South 430 495 39,000  Level Seattle Center
06:35PM 41.1736 -120.7883 169° South 438 504 39,000  Level Seattle Center
06:36PM 41.0531 -120.7572 169° South 440 506 39,000  Level Seattle Center
06:37PM 40.9353 -120.7261 169° South 435 501 39,000  Level Seattle Center
06:38PM 40.8169 -120.6981 170° South 434 499 39,000  Level Seattle Center
06:40PM 40.6747 -120.6633 170° South 435 501 39,000  Level Seattle Center
06:40PM 40.6050 -120.6464 170° South 435 501 39,000  Level Oakland Center
06:41PM 40.4783 -120.6153 169° South 437 503 39,000  Level Oakland Center
06:42PM 40.3586 -120.5872 170° South 435 501 39,000  Level Oakland Center
06:43PM 40.2400 -120.5583 169° South 433 498 39,000  Level Oakland Center
06:44PM 40.0964 -120.5247 170° South 435 501 39,000  Level Oakland Center
06:45PM 39.9942 -120.5011 170° South 439 505 39,000  Level Oakland Center
06:46PM 39.8500 -120.4683 170° South 439 505 39,000  Level Oakland Center
06:47PM 39.7306 -120.4408 170° South 436 502 39,000  Level Oakland Center
06:48PM 39.6111 -120.4136 170° South 435 501 39,000  Level Oakland Center
06:49PM 39.4911 -120.3847 169° South 438 504 39,000  Level Oakland Center
06:51PM 39.3714 -120.3575 170° South 437 503 39,000  Level Oakland Center
06:52PM 39.2494 -120.3289 170° South 440 506 39,000  Level Oakland Center
06:53PM 39.1272 -120.3006 170° South 443 510 39,000  Level Oakland Center
06:54PM 39.0064 -120.2742 170° South 440 506 39,000  Level Oakland Center
06:55PM 38.8850 -120.2467 170° South 440 506 39,000  Level Oakland Center
06:56PM 38.7397 -120.2142 170° South 440 506 39,000  Level Oakland Center
06:57PM 38.6175 -120.1869 170° South 442 509 39,000  Level Oakland Center
06:58PM 38.4969 -120.1597 170° South 439 505 39,000  Level Oakland Center
06:59PM 38.3758 -120.1333 170° South 439 505 39,000  Level Oakland Center
07:00PM 38.2542 -120.1067 170° South 441 507 39,000  Level Oakland Center
07:01PM 38.1333 -120.0789 170° South 441 507 39,000  Level Oakland Center
07:02PM 38.0103 -120.0514 170° South 443 510 39,000  Level Oakland Center
07:03PM 37.8894 -120.0253 170° South 443 510 39,000  Level Oakland Center
07:04PM 37.7678 -119.9986 170° South 442 509 39,000  Level Oakland Center
07:05PM 37.6456 -119.9711 170° South 444 511 39,000  Level Oakland Center
07:06PM 37.4992 -119.9394 170° South 443 510 39,000  Level Oakland Center
07:07PM 37.3775 -119.9136 170° South 441 507 39,000  Level Oakland Center
07:08PM 37.2542 -119.8869 170° South 447 514 39,000  Level Oakland Center
07:09PM 37.1317 -119.8592 170° South 446 513 39,000  Level Oakland Center
07:10PM 37.0114 -119.8350 171° South 447 514 39,000  Level Oakland Center
07:11PM 36.8886 -119.8078 170° South 447 514 39,000  Level Oakland Center
07:12PM 36.7650 -119.7803 170° South 450 518 39,000  Level Oakland Center
07:13PM 36.6417 -119.7550 171° South 450 518 39,000  Level Oakland Center
07:14PM 36.4933 -119.7211 170° South 450 518 39,000  Level Oakland Center
07:15PM 36.3692 -119.6956 171° South 451 519 39,000  Level Oakland Center
07:16PM 36.2464 -119.6708 171° South 448 516 39,000  Level Oakland Center
07:17PM 36.1233 -119.6444 170° South 447 514 39,000  Level Oakland Center
07:18PM 36.0003 -119.6181 170° South 447 514 39,000  Level Oakland Center
07:19PM 35.8767 -119.6178 180° South 441 507 39,000  Level Oakland Center
07:20PM 35.7533 -119.6228 182° South 441 507 39,000 -540 Level Oakland Center
07:21PM 35.6319 -119.6286 182° South 440 506 38,000 -1,500 Descending Los Angeles Center
07:22PM 35.5169 -119.6319 181° South 424 488 36,200 -1,500 Descending Los Angeles Center
07:23PM 35.4011 -119.6378 182° South 416 479 35,000 -1,500 Descending Los Angeles Center
07:24PM 35.2764 -119.6281 176° South 445 512 33,100 -1,980 Descending Los Angeles Center
07:25PM 35.1600 -119.5578 154° Southeast 463 533 31,000 -2,100 Descending Los Angeles Center
07:26PM 35.0489 -119.4642 145° Southeast 479 551 28,800 -1,980 Descending Los Angeles Center
07:27PM 34.9433 -119.3744 145° Southeast 468 539 27,000 -1,140 Descending Los Angeles Center
07:28PM 34.8339 -119.2792 144° Southeast 406 467 26,500 -780 Descending Los Angeles Center
07:29PM 34.7389 -119.1994 145° Southeast 413 475 25,400 -1,200 Descending Los Angeles Center
07:30PM 34.6469 -119.1236 146° Southeast 404 465 24,100 -1,980 Descending Los Angeles Center
07:31PM 34.5500 -119.0425 145° Southeast 395 455 21,400 -2,520 Descending Los Angeles Center
07:32PM 34.4625 -118.9697 146° Southeast 380 437 19,000 -2,340 Descending Los Angeles Center
07:34PM 34.3792 -118.9000 145° Southeast 363 418 16,600 -2,280 Descending Los Angeles Center
07:35PM 34.2892 -118.8561 158° South 351 404 14,300 -2,280 Descending Los Angeles Center
07:36PM 34.1989 -118.8236 163° South 340 391 12,000 -1,920 Descending Los Angeles Center
07:37PM 34.0956 -118.7858 163° South 324 373 10,000 -900 Descending Los Angeles Center
07:38PM 34.0344 -118.7033 132° Southeast 283 326 10,000 -540 Level Los Angeles Center
07:39PM 34.0244 -118.6044 97° East 295 339 8,900 -1,440 Descending Los Angeles Center
07:40PM 34.0147 -118.5017 96° East 285 328 7,100 -1,020 Descending Los Angeles Center
07:41PM 34.0161 -118.4286 89° East 259 298 6,900 -660 Descending Los Angeles Center
07:42PM 34.0261 -118.3700 78° East 233 268 5,800 -1,500 Descending Los Angeles Center
07:43PM 34.0378 -118.2753 82° East 208 239 3,800 -1,260 Descending Los Angeles Center
07:44PM 34.0250 -118.2247 107° East 201 231 3,200 -540 Descending Los Angeles Center
07:45PM 33.9906 -118.2542 215° Southwest 175 201 2,700 -720 Descending Los Angeles Center
07:46PM 33.9631 -118.2969 232° Southwest 166 191 1,800 -780 Descending Los Angeles Center
07:47PM 33.9589 -118.3386 263° West 137 158 1,100 -660 Descending Los Angeles Center
07:48PM 33.9558 -118.3781 265° West 125 144 500 -480 Descending Los Angeles Center
07:49PM 33.9511 -118.4225 263° West 123 142 200 -300 Descending Los Angeles Center